createdAt,value
2022-11-24T00:01:23.022Z,99750.16
2022-11-24T00:03:56.024Z,99746.06
2022-11-24T00:06:24.960Z,99751.09
2022-11-24T00:08:53.720Z,99755.63
2022-11-24T00:11:24.061Z,99758.16
2022-11-24T00:13:52.287Z,99754.75
2022-11-24T00:16:23.888Z,99760.81
2022-11-24T00:18:53.573Z,99764.16
2022-11-24T00:21:22.255Z,99758.44
2022-11-24T00:23:51.289Z,99762.72
2022-11-24T00:26:20.887Z,99767.72
2022-11-24T00:28:50.797Z,99771.03
2022-11-24T00:31:21.924Z,99780.16
2022-11-24T00:33:52.295Z,99771.81
2022-11-24T00:36:22.359Z,99777.22
2022-11-24T00:38:54.803Z,99763.34
2022-11-24T00:41:23.742Z,99791.53
2022-11-24T00:43:52.053Z,99787.97
2022-11-24T00:46:22.010Z,99794.69
2022-11-24T00:48:50.680Z,99782.78
2022-11-24T00:51:20.233Z,99803.22
2022-11-24T00:53:48.863Z,99804.09
2022-11-24T00:56:17.195Z,99803.94
2022-11-24T00:58:45.300Z,99807.84
2022-11-24T01:01:15.187Z,99800.91
2022-11-24T01:03:46.721Z,99807.75
2022-11-24T01:06:16.608Z,99799.06
2022-11-24T01:08:45.443Z,99799.91
2022-11-24T01:11:15.759Z,99802.63
2022-11-24T01:13:45.508Z,99796.81
2022-11-24T01:16:19.642Z,99803.56
2022-11-24T01:18:49.746Z,99795.63
2022-11-24T01:21:18.496Z,99802.09
2022-11-24T01:23:46.643Z,99810.94
2022-11-24T01:26:16.657Z,99815.91
2022-11-24T01:28:47.349Z,99815.97
2022-11-24T01:31:17.126Z,99813.28
2022-11-24T01:33:45.306Z,99816.84
2022-11-24T01:36:14.987Z,99817.84
2022-11-24T01:38:43.133Z,99813.59
2022-11-24T01:41:14.396Z,99816.38
2022-11-24T01:43:43.028Z,99816.38
2022-11-24T01:46:19.222Z,99820.91
2022-11-24T01:48:52.951Z,99816.38
2022-11-24T01:51:23.689Z,99825.34
2022-11-24T01:53:58.607Z,99831.56
2022-11-24T01:56:28.747Z,99826.97
2022-11-24T01:58:59.731Z,99827.94
2022-11-24T02:01:29.367Z,99834.28
2022-11-24T02:03:58.428Z,99832.34
2022-11-24T02:06:30.422Z,99837.38
2022-11-24T02:09:03.340Z,99836.22
2022-11-24T02:11:36.200Z,99840.69
2022-11-24T02:14:06.284Z,99843.88
2022-11-24T02:16:36.778Z,99839.84
2022-11-24T02:19:08.565Z,99842.03
2022-11-24T02:21:38.017Z,99839.13
2022-11-24T02:24:14.460Z,99841.91
2022-11-24T02:26:47.239Z,99845.09
2022-11-24T02:29:16.310Z,99846.06
2022-11-24T02:31:48.751Z,99843.84
2022-11-24T02:34:16.877Z,99843.34
2022-11-24T02:36:45.132Z,99851.13
2022-11-24T02:39:14.651Z,99857.25
2022-11-24T02:41:47.832Z,99850.00
2022-11-24T02:44:18.868Z,99864.47
2022-11-24T02:46:46.986Z,99852.75
2022-11-24T02:49:16.183Z,99854.47
2022-11-24T02:51:44.315Z,99852.75
2022-11-24T02:54:12.401Z,99859.63
2022-11-24T02:56:40.584Z,99865.38
2022-11-24T02:59:10.062Z,99861.22
2022-11-24T03:01:38.184Z,99869.16
2022-11-24T03:04:06.449Z,99870.53
2022-11-24T03:06:34.606Z,99867.22
2022-11-24T03:09:02.795Z,99878.84
2022-11-24T03:11:30.978Z,99865.97
2022-11-24T03:13:59.129Z,99876.84
2022-11-24T03:16:28.649Z,99875.06
2022-11-24T03:18:56.723Z,99883.59
2022-11-24T03:21:24.826Z,99873.13
2022-11-24T03:23:53.373Z,99886.22
2022-11-24T03:26:23.234Z,99883.44
2022-11-24T03:28:51.414Z,99892.28
2022-11-24T03:31:19.720Z,99888.44
2022-11-24T03:33:49.282Z,99887.69
2022-11-24T03:36:17.852Z,99892.75
2022-11-24T03:38:46.047Z,99892.03
2022-11-24T03:41:14.466Z,99895.34
2022-11-24T03:43:44.313Z,99897.19
2022-11-24T03:46:12.870Z,99894.66
2022-11-24T03:48:41.475Z,99895.19
2022-11-24T03:51:11.968Z,99895.25
2022-11-24T03:53:40.459Z,99902.59
2022-11-24T03:56:08.750Z,99903.41
2022-11-24T03:58:37.098Z,99905.53
2022-11-24T04:01:05.268Z,99905.69
2022-11-24T04:03:33.382Z,99911.91
2022-11-24T04:06:01.917Z,99911.03
2022-11-24T04:08:31.439Z,99920.91
2022-11-24T04:10:59.546Z,99918.66
2022-11-24T04:13:28.066Z,99920.56
2022-11-24T04:15:59.170Z,99926.38
2022-11-24T04:18:27.150Z,99919.44
2022-11-24T04:20:55.104Z,99925.66
2022-11-24T04:23:23.424Z,99926.19
2022-11-24T04:25:52.726Z,99930.44
2022-11-24T04:28:20.757Z,99931.63
2022-11-24T04:30:48.671Z,99926.47
2022-11-24T04:33:16.745Z,99930.16
2022-11-24T04:35:44.706Z,99929.88
2022-11-24T04:38:12.640Z,99935.06
2022-11-24T04:40:40.627Z,99936.97
2022-11-24T04:43:10.375Z,99938.25
2022-11-24T04:45:38.551Z,99943.81
2022-11-24T04:48:07.137Z,99947.75
2022-11-24T04:50:35.134Z,99948.69
2022-11-24T04:53:03.083Z,99955.72
2022-11-24T04:55:31.079Z,99959.81
2022-11-24T04:57:59.032Z,99956.69
2022-11-24T05:00:28.335Z,99965.38
2022-11-24T05:02:56.446Z,99964.72
2022-11-24T05:05:24.410Z,99963.00
2022-11-24T05:07:52.445Z,99966.16
2022-11-24T05:10:38.683Z,99969.69
2022-11-24T05:13:08.655Z,99969.84
2022-11-24T05:15:39.809Z,99972.91
2022-11-24T05:18:08.605Z,99973.25
2022-11-24T05:20:36.807Z,99974.50
2022-11-24T05:23:06.278Z,99981.91
2022-11-24T05:25:34.683Z,99982.16
2022-11-24T05:28:04.009Z,99988.41
2022-11-24T05:30:32.982Z,99993.13
2022-11-24T05:33:05.940Z,99998.56
2022-11-24T05:35:34.299Z,100000.28
2022-11-24T05:38:02.188Z,99989.16
2022-11-24T05:40:30.431Z,100002.94
2022-11-24T05:42:58.529Z,100006.41
2022-11-24T05:45:26.438Z,100007.50
2022-11-24T05:47:55.095Z,100013.63
2022-11-24T05:50:24.416Z,100012.13
2022-11-24T05:52:52.327Z,100015.94
2022-11-24T05:55:20.614Z,100021.34
2022-11-24T05:57:48.773Z,100026.50
2022-11-24T06:00:19.991Z,100025.25
2022-11-24T06:02:48.404Z,100034.09
2022-11-24T06:05:16.672Z,100035.47
2022-11-24T06:07:46.400Z,100015.47
2022-11-24T06:10:15.106Z,100033.63
2022-11-24T06:12:43.225Z,100040.41
2022-11-24T06:15:12.241Z,100047.19
2022-11-24T06:17:41.024Z,100034.78
2022-11-24T06:20:10.318Z,100035.97
2022-11-24T06:22:38.564Z,100045.81
2022-11-24T06:25:09.423Z,100051.78
2022-11-24T06:27:37.350Z,100053.75
2022-11-24T06:30:06.511Z,100056.50
2022-11-24T06:32:34.519Z,100058.44
2022-11-24T06:35:05.176Z,100058.34
2022-11-24T06:37:33.244Z,100057.34
2022-11-24T06:40:01.190Z,100065.91
2022-11-24T06:42:30.672Z,100067.38
2022-11-24T06:44:58.674Z,100066.16
2022-11-24T06:47:26.609Z,100062.13
2022-11-24T06:49:54.706Z,100073.44
2022-11-24T06:52:22.678Z,100056.34
2022-11-24T06:54:50.678Z,100060.94
2022-11-24T06:57:18.715Z,100066.13
2022-11-24T06:59:48.059Z,100070.25
2022-11-24T07:02:16.059Z,100074.63
2022-11-24T07:04:43.987Z,100079.09
2022-11-24T07:07:12.665Z,100079.81
2022-11-24T07:09:40.714Z,100082.00
2022-11-24T07:12:09.066Z,100078.09
2022-11-24T07:14:37.337Z,100074.94
2022-11-24T07:17:07.399Z,100079.16
2022-11-24T07:19:35.355Z,100088.69
2022-11-24T07:22:03.466Z,100087.22
2022-11-24T07:24:31.580Z,100081.31
2022-11-24T07:26:59.614Z,100095.72
2022-11-24T07:29:27.549Z,100103.72
2022-11-24T07:31:57.578Z,100099.47
2022-11-24T07:34:28.980Z,100110.13
2022-11-24T07:36:57.838Z,100106.56
2022-11-24T07:39:25.944Z,100113.34
2022-11-24T07:41:53.946Z,100129.22
2022-11-24T07:44:21.971Z,100127.53
2022-11-24T07:46:51.269Z,100132.94
2022-11-24T07:49:19.306Z,100135.75
2022-11-24T07:51:48.625Z,100151.88
2022-11-24T07:54:16.659Z,100149.91
2022-11-24T07:56:44.679Z,100141.91
2022-11-24T07:59:12.595Z,100150.44
2022-11-24T08:01:40.911Z,100132.03
2022-11-24T08:04:09.094Z,100155.63
2022-11-24T08:06:40.829Z,100155.88
2022-11-24T08:09:12.608Z,100151.97
2022-11-24T08:11:40.693Z,100154.19
2022-11-24T08:14:11.763Z,100163.34
2022-11-24T08:16:40.164Z,100154.03
2022-11-24T08:19:08.416Z,100159.66
2022-11-24T08:21:36.509Z,100156.31
2022-11-24T08:24:04.950Z,100142.34
2022-11-24T08:26:34.430Z,100161.88
2022-11-24T08:29:02.500Z,100159.44
2022-11-24T08:31:34.246Z,100160.84
2022-11-24T08:34:03.725Z,100164.19
2022-11-24T08:36:32.506Z,100168.16
2022-11-24T08:39:01.909Z,100168.38
2022-11-24T08:41:30.814Z,100173.25
2022-11-24T08:44:00.172Z,100177.00
2022-11-24T08:46:28.287Z,100178.84
2022-11-24T08:48:56.716Z,100180.84
2022-11-24T08:51:27.010Z,100188.25
2022-11-24T08:53:56.763Z,100197.72
2022-11-24T08:56:25.206Z,100201.59
2022-11-24T08:59:01.104Z,100215.97
2022-11-24T09:01:30.229Z,100218.78
2022-11-24T09:03:58.625Z,100216.03
2022-11-24T09:06:30.757Z,100227.50
2022-11-24T09:08:59.761Z,100228.47
2022-11-24T09:11:30.758Z,100225.94
2022-11-24T09:14:00.105Z,100226.94
2022-11-24T09:16:30.015Z,100228.00
2022-11-24T09:18:59.870Z,100229.91
2022-11-24T09:21:27.853Z,100223.78
2022-11-24T09:23:57.089Z,100225.34
2022-11-24T09:26:26.896Z,100222.78
2022-11-24T09:28:55.941Z,100218.97
2022-11-24T09:31:27.462Z,100222.66
2022-11-24T09:33:56.036Z,100234.53
2022-11-24T09:36:24.540Z,100236.19
2022-11-24T09:38:52.740Z,100233.78
2022-11-24T09:41:55.873Z,100237.56
2022-11-24T09:45:02.026Z,100237.97
2022-11-24T09:47:43.318Z,100233.81
2022-11-24T09:50:15.931Z,100236.09
2022-11-24T09:52:50.526Z,100237.19
2022-11-24T09:55:35.833Z,100245.03
2022-11-24T09:58:25.571Z,100238.47
2022-11-24T10:00:55.662Z,100244.44
2022-11-24T10:03:30.948Z,100238.88
2022-11-24T10:06:01.750Z,100233.97
2022-11-24T10:08:49.110Z,100235.66
2022-11-24T10:11:29.467Z,100239.34
2022-11-24T10:14:25.310Z,100248.66
2022-11-24T10:16:58.550Z,100241.41
2022-11-24T10:19:41.400Z,100233.47
2022-11-24T10:22:26.063Z,100240.47
2022-11-24T10:25:08.482Z,100240.69
2022-11-24T10:27:41.127Z,100243.63
2022-11-24T10:30:16.927Z,100240.88
2022-11-24T10:32:48.158Z,100243.69
2022-11-24T10:35:20.593Z,100250.59
2022-11-24T10:37:57.528Z,100260.78
2022-11-24T10:43:22.618Z,100259.03
2022-11-24T10:45:51.617Z,100257.16
2022-11-24T10:48:22.396Z,100254.00
2022-11-24T10:50:55.265Z,100257.19
2022-11-24T10:53:27.841Z,100248.91
2022-11-24T10:56:01.827Z,100257.81
2022-11-24T10:58:37.386Z,100257.34
2022-11-24T11:01:22.395Z,100254.66
2022-11-24T11:03:52.861Z,100260.09
2022-11-24T11:06:25.577Z,100239.09
2022-11-24T11:09:19.352Z,100257.81
2022-11-24T11:11:48.712Z,100262.31
2022-11-24T11:14:31.500Z,100265.75
2022-11-24T11:17:00.092Z,100260.78
2022-11-24T11:19:58.438Z,100276.19
2022-11-24T11:22:29.658Z,100270.25
2022-11-24T11:25:22.701Z,100281.03
2022-11-24T11:27:51.125Z,100284.84
2022-11-24T11:36:12.054Z,100293.28
2022-11-24T11:38:44.181Z,100292.78
2022-11-24T11:41:20.436Z,100295.13
2022-11-24T11:43:57.996Z,100294.19
2022-11-24T11:46:32.043Z,100305.06
2022-11-24T11:49:00.211Z,100300.47
2022-11-24T11:51:40.461Z,100302.53
2022-11-24T11:54:20.029Z,100297.47
2022-11-24T11:56:50.652Z,100307.63
2022-11-24T11:59:49.840Z,100302.38
2022-11-24T12:02:53.698Z,100298.09
2022-11-24T12:05:30.942Z,100306.47
2022-11-24T12:08:17.571Z,100318.28
2022-11-24T12:11:02.203Z,100309.56
2022-11-24T12:14:07.203Z,100316.72
2022-11-24T12:16:46.472Z,100322.56
2022-11-24T12:19:32.958Z,100323.81
2022-11-24T12:22:08.942Z,100328.97
2022-11-24T12:24:46.453Z,100331.72
2022-11-24T12:27:27.385Z,100337.66
2022-11-24T12:30:06.017Z,100301.00
2022-11-24T12:32:54.919Z,100332.31
2022-11-24T12:35:30.155Z,100328.47
2022-11-24T12:38:06.548Z,100332.06
2022-11-24T12:40:47.331Z,100338.22
2022-11-24T12:43:22.384Z,100328.22
2022-11-24T12:46:00.250Z,100347.13
2022-11-24T12:48:44.155Z,100345.34
2022-11-24T12:51:19.309Z,100353.75
2022-11-24T12:53:49.535Z,100341.06
2022-11-24T12:56:21.799Z,100349.09
2022-11-24T12:58:57.203Z,100366.13
2022-11-24T13:01:34.824Z,100365.28
2022-11-24T13:04:14.045Z,100354.38
2022-11-24T13:06:52.926Z,100362.16
2022-11-24T13:09:21.503Z,100352.69
2022-11-24T13:11:51.430Z,100352.25
2022-11-24T13:14:23.753Z,100367.72
2022-11-24T13:17:27.964Z,100367.09
2022-11-24T13:19:44.774Z,100374.69
2022-11-24T13:22:19.541Z,100382.69
2022-11-24T13:25:12.135Z,100391.63
2022-11-24T13:27:43.289Z,100391.97
2022-11-24T13:30:51.762Z,100389.50
2022-11-24T13:33:40.523Z,100393.94
2022-11-24T13:36:30.518Z,100405.09
2022-11-24T13:38:59.790Z,100409.88
2022-11-24T13:42:08.288Z,100413.72
2022-11-24T13:44:53.285Z,100410.41
2022-11-24T13:47:45.230Z,100417.22
2022-11-24T13:50:26.288Z,100417.00
2022-11-24T13:53:01.726Z,100417.78
2022-11-24T13:55:34.903Z,100419.59
2022-11-24T13:58:28.451Z,100423.38
2022-11-24T14:01:15.569Z,100425.97
2022-11-24T14:04:21.565Z,100422.81
2022-11-24T14:06:42.542Z,100429.75
2022-11-24T14:09:24.112Z,100432.31
2022-11-24T14:12:01.082Z,100438.72
2022-11-24T14:14:29.615Z,100442.03
2022-11-24T14:17:08.894Z,100441.69
2022-11-24T14:19:36.827Z,100446.56
2022-11-24T14:22:08.444Z,100442.72
2022-11-24T14:24:41.213Z,100447.50
2022-11-24T14:27:16.322Z,100447.34
2022-11-24T14:29:55.803Z,100458.78
2022-11-24T14:32:24.575Z,100458.38
2022-11-24T14:34:54.041Z,100450.72
2022-11-24T14:37:23.860Z,100451.31
2022-11-24T14:39:52.082Z,100456.66
2022-11-24T14:42:22.964Z,100463.97
2022-11-24T14:44:55.565Z,100470.63
2022-11-24T14:47:31.196Z,100466.66
2022-11-24T14:50:12.665Z,100474.06
2022-11-24T14:52:50.888Z,100470.63
2022-11-24T14:55:27.997Z,100469.28
2022-11-24T14:57:56.199Z,100470.44
2022-11-24T15:00:29.255Z,100477.38
2022-11-24T15:03:13.443Z,100470.16
2022-11-24T15:06:00.573Z,100487.16
2022-11-24T15:08:36.847Z,100490.28
2022-11-24T15:11:07.781Z,100505.53
2022-11-24T15:13:38.866Z,100495.81
2022-11-24T15:16:15.470Z,100504.09
2022-11-24T15:18:45.102Z,100504.31
2022-11-24T15:21:18.866Z,100505.69
2022-11-24T15:24:06.857Z,100502.09
2022-11-24T15:26:40.242Z,100505.31
2022-11-24T15:29:10.067Z,100503.47
2022-11-24T15:31:38.331Z,100510.56
2022-11-24T15:34:06.396Z,100513.28
2022-11-24T15:36:34.408Z,100507.69
2022-11-24T15:39:03.640Z,100515.31
2022-11-24T15:41:33.286Z,100517.97
2022-11-24T15:44:01.683Z,100503.69
2022-11-24T15:46:37.682Z,100515.59
2022-11-24T15:49:07.191Z,100516.91
2022-11-24T15:51:36.984Z,100518.53
2022-11-24T15:54:07.255Z,100528.38
2022-11-24T15:56:36.662Z,100529.31
2022-11-24T15:59:05.533Z,100524.25
2022-11-24T16:01:35.217Z,100541.88
2022-11-24T16:04:03.622Z,100531.22
2022-11-24T16:06:33.413Z,100541.63
2022-11-24T16:09:01.379Z,100542.00
2022-11-24T16:11:30.866Z,100550.53
2022-11-24T16:13:58.991Z,100544.88
2022-11-24T16:16:29.615Z,100551.22
2022-11-24T16:18:57.632Z,100558.78
2022-11-24T16:21:25.686Z,100556.28
2022-11-24T16:23:53.676Z,100555.06
2022-11-24T16:26:21.675Z,100555.97
2022-11-24T16:28:51.042Z,100556.53
2022-11-24T16:31:19.785Z,100553.88
2022-11-24T16:33:47.936Z,100559.00
2022-11-24T16:36:16.312Z,100553.06
2022-11-24T16:38:44.883Z,100551.88
2022-11-24T16:41:13.159Z,100558.34
2022-11-24T16:43:41.259Z,100561.34
2022-11-24T16:46:21.459Z,100559.59
2022-11-24T16:48:50.858Z,100566.00
2022-11-24T16:51:20.535Z,100566.97
2022-11-24T16:53:48.674Z,100567.50
2022-11-24T16:56:17.437Z,100569.31
2022-11-24T16:58:45.383Z,100574.69
2022-11-24T17:01:14.648Z,100579.28
2022-11-24T17:03:44.056Z,100578.59
2022-11-24T17:06:15.709Z,100580.81
2022-11-24T17:08:44.894Z,100591.44
2022-11-24T17:11:15.375Z,100586.38
2022-11-24T17:13:45.215Z,100588.28
2022-11-24T17:16:15.046Z,100599.72
2022-11-24T17:18:44.779Z,100599.00
2022-11-24T17:21:14.930Z,100598.84
2022-11-24T17:23:43.017Z,100599.09
2022-11-24T17:26:13.398Z,100593.69
2022-11-24T17:28:42.048Z,100594.06
2022-11-24T17:31:11.332Z,100598.91
2022-11-24T17:33:39.341Z,100590.41
2022-11-24T17:36:09.736Z,100594.06
2022-11-24T17:38:37.805Z,100602.22
2022-11-24T17:41:06.082Z,100600.78
2022-11-24T17:43:34.311Z,100602.66
2022-11-24T17:46:04.073Z,100604.50
2022-11-24T17:48:32.642Z,100586.22
2022-11-24T17:51:01.684Z,100598.81
2022-11-24T17:53:31.792Z,100600.19
2022-11-24T17:56:00.750Z,100600.19
2022-11-24T17:58:29.171Z,100604.78
2022-11-24T18:00:58.172Z,100605.06
2022-11-24T18:03:28.659Z,100611.97
2022-11-24T18:05:56.826Z,100617.19
2022-11-24T18:08:25.144Z,100617.97
2022-11-24T18:10:54.482Z,100618.09
2022-11-24T18:13:48.737Z,100620.22
2022-11-24T18:16:12.593Z,100611.75
2022-11-24T18:18:42.829Z,100613.59
2022-11-24T18:21:14.575Z,100617.44
2022-11-24T18:23:43.338Z,100625.56
2022-11-24T18:26:14.984Z,100613.63
2022-11-24T18:28:43.585Z,100617.25
2022-11-24T18:31:13.834Z,100619.09
2022-11-24T18:33:43.840Z,100620.03
2022-11-24T18:36:14.680Z,100618.47
2022-11-24T18:38:43.311Z,100622.94
2022-11-24T18:41:14.315Z,100623.19
2022-11-24T18:43:42.959Z,100622.38
2022-11-24T18:46:13.141Z,100634.97
2022-11-24T18:48:41.537Z,100633.41
2022-11-24T18:51:16.361Z,100635.28
2022-11-24T18:53:45.981Z,100631.97
2022-11-24T18:56:17.337Z,100635.47
2022-11-24T18:58:45.865Z,100629.19
2022-11-24T19:01:24.717Z,100628.44
2022-11-24T19:03:55.629Z,100631.41
2022-11-24T19:06:28.581Z,100635.19
2022-11-24T19:08:57.081Z,100628.66
2022-11-24T19:11:28.202Z,100631.56
2022-11-24T19:13:56.803Z,100639.66
2022-11-24T19:16:25.542Z,100631.25
2022-11-24T19:18:57.226Z,100622.63
2022-11-24T19:21:25.252Z,100630.53
2022-11-24T19:23:53.272Z,100626.38
2022-11-24T19:26:21.310Z,100632.63
2022-11-24T19:28:51.027Z,100632.84
2022-11-24T19:31:20.315Z,100633.91
2022-11-24T19:33:48.671Z,100627.06
2022-11-24T19:36:18.503Z,100594.47
2022-11-24T19:38:51.023Z,100639.56
2022-11-24T19:41:20.654Z,100638.84
2022-11-24T19:43:50.197Z,100642.44
2022-11-24T19:46:19.534Z,100648.78
2022-11-24T19:48:50.156Z,100652.47
2022-11-24T19:51:21.501Z,100644.75
2022-11-24T19:53:49.689Z,100649.28
2022-11-24T19:56:20.074Z,100656.31
2022-11-24T19:58:50.894Z,100649.53
2022-11-24T20:01:21.454Z,100664.47
2022-11-24T20:03:56.289Z,100659.50
2022-11-24T20:06:24.316Z,100662.16
2022-11-24T20:08:52.331Z,100659.69
2022-11-24T20:11:22.019Z,100654.56
2022-11-24T20:13:51.781Z,100662.59
2022-11-24T20:16:26.126Z,100648.59
2022-11-24T20:18:55.863Z,100647.78
2022-11-24T20:21:25.979Z,100656.53
2022-11-24T20:23:56.058Z,100653.16
2022-11-24T20:26:26.376Z,100659.44
2022-11-24T20:28:57.582Z,100665.66
2022-11-24T20:31:28.052Z,100662.19
2022-11-24T20:33:56.916Z,100658.78
2022-11-24T20:36:27.505Z,100660.53
2022-11-24T20:38:56.430Z,100664.13
2022-11-24T20:41:26.471Z,100673.94
2022-11-24T20:43:57.320Z,100679.38
2022-11-24T20:46:27.539Z,100681.25
2022-11-24T20:48:56.609Z,100678.91
2022-11-24T20:51:26.370Z,100674.56
2022-11-24T20:53:55.835Z,100686.09
2022-11-24T20:56:25.860Z,100676.69
2022-11-24T20:58:56.535Z,100690.59
2022-11-24T21:01:26.792Z,100688.84
2022-11-24T21:03:57.687Z,100701.78
2022-11-24T21:06:27.906Z,100697.22
2022-11-24T21:09:01.985Z,100694.47
2022-11-24T21:11:31.914Z,100704.06
2022-11-24T21:14:01.768Z,100699.72
2022-11-24T21:16:32.165Z,100682.41
2022-11-24T21:19:02.229Z,100706.91
2022-11-24T21:21:34.118Z,100714.88
2022-11-24T21:24:02.439Z,100716.81
2022-11-24T21:26:30.845Z,100708.03
2022-11-24T21:28:59.060Z,100709.84
2022-11-24T21:31:28.378Z,100710.81
2022-11-24T21:33:56.597Z,100717.06
2022-11-24T21:36:26.261Z,100716.28
2022-11-24T21:38:56.138Z,100718.09
2022-11-24T21:41:25.685Z,100729.53
2022-11-24T21:43:55.511Z,100727.00
2022-11-24T21:46:24.443Z,100707.00
2022-11-24T21:48:53.776Z,100728.81
2022-11-24T21:51:22.236Z,100727.13
2022-11-24T21:53:50.168Z,100722.00
2022-11-24T21:56:19.982Z,100723.72
2022-11-24T21:58:49.382Z,100717.59
2022-11-24T22:01:19.248Z,100715.09
2022-11-24T22:03:47.509Z,100722.88
2022-11-24T22:06:17.679Z,100723.88
2022-11-24T22:08:46.561Z,100719.41
2022-11-24T22:11:16.392Z,100721.22
2022-11-24T22:13:45.507Z,100722.28
2022-11-24T22:16:15.805Z,100716.25
2022-11-24T22:18:45.071Z,100714.66
2022-11-24T22:21:15.192Z,100721.56
2022-11-24T22:23:44.820Z,100703.50
2022-11-24T22:26:15.617Z,100722.66
2022-11-24T22:28:44.682Z,100724.50
2022-11-24T22:31:14.488Z,100726.38
2022-11-24T22:33:43.611Z,100722.94
2022-11-24T22:36:12.722Z,100719.59
2022-11-24T22:38:41.152Z,100693.72
2022-11-24T22:41:12.250Z,100723.03
2022-11-24T22:43:41.897Z,100689.94
2022-11-24T22:46:12.469Z,100717.44
2022-11-24T22:48:41.017Z,100714.56
2022-11-24T22:51:11.317Z,100708.22
2022-11-24T22:53:40.164Z,100710.88
2022-11-24T22:56:11.852Z,100708.03
2022-11-24T22:58:40.580Z,100714.25
2022-11-24T23:01:11.267Z,100714.41
2022-11-24T23:03:40.099Z,100705.75
2022-11-24T23:06:14.834Z,100718.88
2022-11-24T23:08:43.318Z,100678.00
2022-11-24T23:11:14.863Z,100711.75
2022-11-24T23:13:43.565Z,100708.22
2022-11-24T23:16:13.800Z,100706.56
2022-11-24T23:18:42.673Z,100706.50
2022-11-24T23:21:14.661Z,100704.94
2022-11-24T23:23:43.418Z,100712.84
2022-11-24T23:26:14.574Z,100703.31
2022-11-24T23:28:43.106Z,100706.97
2022-11-24T23:31:13.996Z,100696.59
2022-11-24T23:33:42.367Z,100691.38
2022-11-24T23:36:12.214Z,100693.19
2022-11-24T23:38:40.981Z,100694.00
2022-11-24T23:41:12.021Z,100692.09
2022-11-24T23:43:42.521Z,100697.38
2022-11-24T23:46:12.269Z,100690.53
2022-11-24T23:48:40.864Z,100689.53
2022-11-24T23:51:11.311Z,100698.22
2022-11-24T23:53:39.949Z,100689.53
2022-11-24T23:56:09.026Z,100694.84
2022-11-24T23:58:36.940Z,100688.59
